sensor_id;sensor_type;location;lat;lon;timestamp;P1;durP1;ratioP1;P2;durP2;ratioP2
18657;SDS011;9458;50.942;5.074;2023-02-15T02:32:21;44.67;;;23.03;;
18657;SDS011;9458;50.942;5.074;2023-02-15T02:35:13;44.80;;;23.83;;
18657;SDS011;9458;50.942;5.074;2023-02-15T02:37:48;51.77;;;25.63;;
18657;SDS011;9458;50.942;5.074;2023-02-15T02:40:24;47.93;;;25.23;;
18657;SDS011;9458;50.942;5.074;2023-02-15T02:42:59;48.47;;;24.53;;
18657;SDS011;9458;50.942;5.074;2023-02-15T02:45:31;45.23;;;23.53;;
18657;SDS011;9458;50.942;5.074;2023-02-15T02:48:05;49.90;;;24.20;;
18657;SDS011;9458;50.942;5.074;2023-02-15T02:50:38;48.70;;;24.67;;
18657;SDS011;9458;50.942;5.074;2023-02-15T02:53:06;50.50;;;25.40;;
18657;SDS011;9458;50.942;5.074;2023-02-15T02:55:36;46.53;;;24.50;;
18657;SDS011;9458;50.942;5.074;2023-02-15T02:58:09;48.40;;;24.57;;
18657;SDS011;9458;50.942;5.074;2023-02-15T03:00:42;49.00;;;24.70;;
18657;SDS011;9458;50.942;5.074;2023-02-15T03:03:13;52.90;;;22.97;;
18657;SDS011;9458;50.942;5.074;2023-02-15T03:05:49;44.53;;;21.97;;
18657;SDS011;9458;50.942;5.074;2023-02-15T03:08:21;44.60;;;23.90;;
18657;SDS011;9458;50.942;5.074;2023-02-15T03:10:53;45.30;;;23.57;;
18657;SDS011;9458;50.942;5.074;2023-02-15T03:13:26;44.27;;;23.20;;
18657;SDS011;9458;50.942;5.074;2023-02-15T03:15:55;40.30;;;21.30;;
18657;SDS011;9458;50.942;5.074;2023-02-15T03:18:43;43.40;;;22.70;;
18657;SDS011;9458;50.942;5.074;2023-02-15T03:21:20;42.73;;;21.77;;
18657;SDS011;9458;50.942;5.074;2023-02-15T03:23:52;39.13;;;21.07;;
18657;SDS011;9458;50.942;5.074;2023-02-15T03:26:23;51.20;;;23.50;;
18657;SDS011;9458;50.942;5.074;2023-02-15T03:28:53;43.27;;;22.97;;
18657;SDS011;9458;50.942;5.074;2023-02-15T03:31:24;41.23;;;21.53;;
18657;SDS011;9458;50.942;5.074;2023-02-15T03:33:56;42.17;;;22.50;;
18657;SDS011;9458;50.942;5.074;2023-02-15T03:36:30;43.77;;;21.60;;
18657;SDS011;9458;50.942;5.074;2023-02-15T03:39:06;43.77;;;22.67;;
18657;SDS011;9458;50.942;5.074;2023-02-15T03:41:39;40.00;;;21.57;;
18657;SDS011;9458;50.942;5.074;2023-02-15T03:44:11;41.93;;;22.03;;
18657;SDS011;9458;50.942;5.074;2023-02-15T03:46:43;37.87;;;21.40;;
18657;SDS011;9458;50.942;5.074;2023-02-15T03:49:15;38.63;;;22.07;;
18657;SDS011;9458;50.942;5.074;2023-02-15T03:51:50;40.83;;;21.33;;
18657;SDS011;9458;50.942;5.074;2023-02-15T03:54:20;43.93;;;22.93;;
18657;SDS011;9458;50.942;5.074;2023-02-15T03:57:17;41.90;;;23.13;;
18657;SDS011;9458;50.942;5.074;2023-02-15T04:00:04;40.20;;;21.20;;
18657;SDS011;9458;50.942;5.074;2023-02-15T04:02:57;46.23;;;22.33;;
18657;SDS011;9458;50.942;5.074;2023-02-15T04:05:37;46.00;;;22.40;;
18657;SDS011;9458;50.942;5.074;2023-02-15T04:08:06;40.77;;;21.83;;
18657;SDS011;9458;50.942;5.074;2023-02-15T04:10:34;38.73;;;22.13;;
18657;SDS011;9458;50.942;5.074;2023-02-15T04:13:19;41.60;;;20.87;;
18657;SDS011;9458;50.942;5.074;2023-02-15T04:15:49;41.63;;;22.13;;
18657;SDS011;9458;50.942;5.074;2023-02-15T04:18:32;44.57;;;23.00;;
18657;SDS011;9458;50.942;5.074;2023-02-15T04:21:18;50.20;;;23.83;;
18657;SDS011;9458;50.942;5.074;2023-02-15T04:24:06;39.40;;;22.17;;
18657;SDS011;9458;50.942;5.074;2023-02-15T04:26:51;44.37;;;22.67;;
18657;SDS011;9458;50.942;5.074;2023-02-15T04:29:19;48.60;;;20.83;;
18657;SDS011;9458;50.942;5.074;2023-02-15T04:31:48;42.13;;;22.27;;
18657;SDS011;9458;50.942;5.074;2023-02-15T04:34:15;44.10;;;21.73;;
18657;SDS011;9458;50.942;5.074;2023-02-15T04:36:43;40.47;;;21.13;;
18657;SDS011;9458;50.942;5.074;2023-02-15T04:39:14;45.40;;;22.70;;
18657;SDS011;9458;50.942;5.074;2023-02-15T04:41:42;49.17;;;23.53;;
18657;SDS011;9458;50.942;5.074;2023-02-15T04:44:10;43.13;;;21.93;;
18657;SDS011;9458;50.942;5.074;2023-02-15T04:46:38;47.33;;;23.13;;
18657;SDS011;9458;50.942;5.074;2023-02-15T04:49:05;41.77;;;22.97;;
18657;SDS011;9458;50.942;5.074;2023-02-15T04:51:33;40.00;;;22.63;;
18657;SDS011;9458;50.942;5.074;2023-02-15T04:54:01;45.53;;;22.00;;
18657;SDS011;9458;50.942;5.074;2023-02-15T04:56:30;40.97;;;21.53;;
18657;SDS011;9458;50.942;5.074;2023-02-15T04:58:59;43.53;;;22.60;;
18657;SDS011;9458;50.942;5.074;2023-02-15T05:01:27;46.13;;;22.13;;
18657;SDS011;9458;50.942;5.074;2023-02-15T05:03:55;47.80;;;22.90;;
18657;SDS011;9458;50.942;5.074;2023-02-15T05:06:22;46.57;;;23.20;;
18657;SDS011;9458;50.942;5.074;2023-02-15T05:08:50;46.47;;;22.53;;
18657;SDS011;9458;50.942;5.074;2023-02-15T05:11:17;47.03;;;22.40;;
18657;SDS011;9458;50.942;5.074;2023-02-15T05:13:50;37.10;;;21.47;;
18657;SDS011;9458;50.942;5.074;2023-02-15T05:16:18;43.97;;;21.07;;
18657;SDS011;9458;50.942;5.074;2023-02-15T05:18:46;47.20;;;23.37;;
18657;SDS011;9458;50.942;5.074;2023-02-15T05:21:13;48.53;;;23.47;;
18657;SDS011;9458;50.942;5.074;2023-02-15T05:23:44;49.00;;;22.63;;
18657;SDS011;9458;50.942;5.074;2023-02-15T05:26:12;42.27;;;22.63;;
18657;SDS011;9458;50.942;5.074;2023-02-15T05:29:09;46.10;;;22.43;;
18657;SDS011;9458;50.942;5.074;2023-02-15T05:31:37;44.37;;;21.47;;
18657;SDS011;9458;50.942;5.074;2023-02-15T05:34:05;43.00;;;21.87;;
18657;SDS011;9458;50.942;5.074;2023-02-15T05:36:34;43.13;;;21.53;;
18657;SDS011;9458;50.942;5.074;2023-02-15T05:39:01;41.67;;;20.67;;
18657;SDS011;9458;50.942;5.074;2023-02-15T05:41:31;43.30;;;21.23;;
18657;SDS011;9458;50.942;5.074;2023-02-15T05:43:59;41.17;;;22.57;;
18657;SDS011;9458;50.942;5.074;2023-02-15T05:46:28;44.97;;;21.53;;
18657;SDS011;9458;50.942;5.074;2023-02-15T05:48:56;41.60;;;21.43;;
18657;SDS011;9458;50.942;5.074;2023-02-15T05:51:23;37.10;;;19.87;;
18657;SDS011;9458;50.942;5.074;2023-02-15T05:53:51;39.80;;;21.20;;
18657;SDS011;9458;50.942;5.074;2023-02-15T05:56:18;46.70;;;21.10;;
18657;SDS011;9458;50.942;5.074;2023-02-15T05:58:46;42.20;;;22.07;;
18657;SDS011;9458;50.942;5.074;2023-02-15T06:01:14;44.23;;;20.73;;
18657;SDS011;9458;50.942;5.074;2023-02-15T06:03:47;38.13;;;20.57;;
18657;SDS011;9458;50.942;5.074;2023-02-15T06:06:16;42.43;;;21.87;;
18657;SDS011;9458;50.942;5.074;2023-02-15T06:08:44;39.73;;;20.47;;
18657;SDS011;9458;50.942;5.074;2023-02-15T06:11:11;46.97;;;22.47;;
18657;SDS011;9458;50.942;5.074;2023-02-15T06:13:44;41.87;;;21.30;;
18657;SDS011;9458;50.942;5.074;2023-02-15T06:16:12;43.63;;;21.87;;
18657;SDS011;9458;50.942;5.074;2023-02-15T06:18:41;46.63;;;22.10;;
18657;SDS011;9458;50.942;5.074;2023-02-15T06:21:12;46.80;;;22.60;;
18657;SDS011;9458;50.942;5.074;2023-02-15T06:23:39;44.13;;;20.70;;
18657;SDS011;9458;50.942;5.074;2023-02-15T06:26:07;38.40;;;20.63;;
18657;SDS011;9458;50.942;5.074;2023-02-15T06:28:34;42.87;;;21.10;;
18657;SDS011;9458;50.942;5.074;2023-02-15T06:31:03;41.53;;;20.50;;
18657;SDS011;9458;50.942;5.074;2023-02-15T06:33:30;42.50;;;20.43;;
18657;SDS011;9458;50.942;5.074;2023-02-15T06:36:00;44.40;;;19.87;;
18657;SDS011;9458;50.942;5.074;2023-02-15T06:38:30;42.97;;;20.80;;
18657;SDS011;9458;50.942;5.074;2023-02-15T06:40:58;43.07;;;19.83;;
18657;SDS011;9458;50.942;5.074;2023-02-15T06:43:25;38.23;;;20.57;;
18657;SDS011;9458;50.942;5.074;2023-02-15T06:45:53;41.10;;;20.77;;
18657;SDS011;9458;50.942;5.074;2023-02-15T06:48:21;40.57;;;19.73;;
18657;SDS011;9458;50.942;5.074;2023-02-15T06:50:49;34.90;;;19.80;;
18657;SDS011;9458;50.942;5.074;2023-02-15T06:53:31;39.40;;;19.17;;
18657;SDS011;9458;50.942;5.074;2023-02-15T06:56:02;37.07;;;19.10;;
18657;SDS011;9458;50.942;5.074;2023-02-15T06:58:32;39.30;;;19.73;;
18657;SDS011;9458;50.942;5.074;2023-02-15T07:01:01;36.00;;;18.23;;
18657;SDS011;9458;50.942;5.074;2023-02-15T07:03:39;37.03;;;19.27;;
18657;SDS011;9458;50.942;5.074;2023-02-15T07:06:10;33.97;;;18.57;;
18657;SDS011;9458;50.942;5.074;2023-02-15T07:08:41;36.07;;;18.13;;
18657;SDS011;9458;50.942;5.074;2023-02-15T07:11:12;39.47;;;18.53;;
18657;SDS011;9458;50.942;5.074;2023-02-15T07:13:57;32.87;;;17.57;;
18657;SDS011;9458;50.942;5.074;2023-02-15T07:16:25;36.37;;;19.73;;
18657;SDS011;9458;50.942;5.074;2023-02-15T07:18:53;33.50;;;18.73;;
18657;SDS011;9458;50.942;5.074;2023-02-15T07:21:21;36.67;;;19.30;;
18657;SDS011;9458;50.942;5.074;2023-02-15T07:23:55;35.40;;;18.10;;
18657;SDS011;9458;50.942;5.074;2023-02-15T07:26:25;35.13;;;19.20;;
18657;SDS011;9458;50.942;5.074;2023-02-15T07:28:55;32.80;;;19.10;;
18657;SDS011;9458;50.942;5.074;2023-02-15T07:31:35;35.77;;;19.37;;
18657;SDS011;9458;50.942;5.074;2023-02-15T07:34:20;33.20;;;19.03;;
18657;SDS011;9458;50.942;5.074;2023-02-15T07:37:02;35.60;;;19.83;;
18657;SDS011;9458;50.942;5.074;2023-02-15T12:22:51;23.80;;;15.88;;
18657;SDS011;9458;50.942;5.074;2023-02-15T12:25:21;24.65;;;16.77;;
18657;SDS011;9458;50.942;5.074;2023-02-15T12:27:52;26.15;;;16.48;;
18657;SDS011;9458;50.942;5.074;2023-02-15T12:30:22;32.70;;;16.95;;
18657;SDS011;9458;50.942;5.074;2023-02-15T12:32:56;24.20;;;16.52;;
18657;SDS011;9458;50.942;5.074;2023-02-15T12:35:32;24.83;;;16.10;;
18657;SDS011;9458;50.942;5.074;2023-02-15T12:38:20;25.90;;;17.52;;
18657;SDS011;9458;50.942;5.074;2023-02-15T12:40:57;26.50;;;17.30;;
18657;SDS011;9458;50.942;5.074;2023-02-15T12:43:33;28.98;;;17.92;;
18657;SDS011;9458;50.942;5.074;2023-02-15T12:46:19;27.92;;;17.20;;
18657;SDS011;9458;50.942;5.074;2023-02-15T12:49:04;28.30;;;17.58;;
18657;SDS011;9458;50.942;5.074;2023-02-15T12:51:44;29.23;;;17.35;;
18657;SDS011;9458;50.942;5.074;2023-02-15T12:54:36;27.00;;;17.27;;
18657;SDS011;9458;50.942;5.074;2023-02-15T12:59:58;33.10;;;18.02;;
18657;SDS011;9458;50.942;5.074;2023-02-15T13:02:30;29.10;;;17.98;;
18657;SDS011;9458;50.942;5.074;2023-02-15T13:05:10;30.70;;;18.88;;
18657;SDS011;9458;50.942;5.074;2023-02-15T13:07:44;32.72;;;18.02;;
18657;SDS011;9458;50.942;5.074;2023-02-15T13:13:01;29.40;;;18.75;;
18657;SDS011;9458;50.942;5.074;2023-02-15T13:15:40;33.35;;;18.83;;
18657;SDS011;9458;50.942;5.074;2023-02-15T13:18:13;25.63;;;17.88;;
18657;SDS011;9458;50.942;5.074;2023-02-15T13:20:43;29.40;;;18.40;;
18657;SDS011;9458;50.942;5.074;2023-02-15T13:23:18;27.85;;;18.77;;
18657;SDS011;9458;50.942;5.074;2023-02-15T13:25:58;26.63;;;18.45;;
18657;SDS011;9458;50.942;5.074;2023-02-15T13:28:32;28.33;;;18.35;;
18657;SDS011;9458;50.942;5.074;2023-02-15T13:31:07;30.00;;;19.13;;
18657;SDS011;9458;50.942;5.074;2023-02-15T13:33:39;29.13;;;18.20;;
18657;SDS011;9458;50.942;5.074;2023-02-15T13:36:12;32.20;;;20.15;;
18657;SDS011;9458;50.942;5.074;2023-02-15T13:38:46;34.15;;;19.10;;
18657;SDS011;9458;50.942;5.074;2023-02-15T13:41:25;29.60;;;19.05;;
18657;SDS011;9458;50.942;5.074;2023-02-15T13:52:18;32.15;;;20.08;;
18657;SDS011;9458;50.942;5.074;2023-02-15T13:55:00;28.65;;;18.60;;
18657;SDS011;9458;50.942;5.074;2023-02-15T13:57:54;32.78;;;19.92;;
18657;SDS011;9458;50.942;5.074;2023-02-15T14:00:40;32.63;;;20.48;;
18657;SDS011;9458;50.942;5.074;2023-02-15T14:03:38;35.35;;;21.65;;
18657;SDS011;9458;50.942;5.074;2023-02-15T14:06:25;30.80;;;18.58;;
18657;SDS011;9458;50.942;5.074;2023-02-15T14:09:08;32.97;;;21.23;;
18657;SDS011;9458;50.942;5.074;2023-02-15T14:11:48;30.95;;;20.15;;
18657;SDS011;9458;50.942;5.074;2023-02-15T14:14:26;32.40;;;19.85;;
18657;SDS011;9458;50.942;5.074;2023-02-15T14:17:17;32.53;;;20.55;;
18657;SDS011;9458;50.942;5.074;2023-02-15T14:19:53;32.33;;;20.52;;
18657;SDS011;9458;50.942;5.074;2023-02-15T14:22:27;35.65;;;20.83;;
18657;SDS011;9458;50.942;5.074;2023-02-15T14:25:15;32.67;;;21.50;;
18657;SDS011;9458;50.942;5.074;2023-02-15T14:28:01;28.85;;;20.00;;
18657;SDS011;9458;50.942;5.074;2023-02-15T15:39:09;35.75;;;21.05;;
18657;SDS011;9458;50.942;5.074;2023-02-15T15:42:01;36.78;;;21.40;;
18657;SDS011;9458;50.942;5.074;2023-02-15T15:44:51;34.63;;;21.90;;
18657;SDS011;9458;50.942;5.074;2023-02-15T15:47:43;34.25;;;21.60;;
18657;SDS011;9458;50.942;5.074;2023-02-15T15:50:25;35.30;;;21.58;;
18657;SDS011;9458;50.942;5.074;2023-02-15T15:52:53;36.83;;;21.70;;
18657;SDS011;9458;50.942;5.074;2023-02-15T15:55:25;36.88;;;21.55;;
18657;SDS011;9458;50.942;5.074;2023-02-15T15:57:55;39.38;;;21.40;;
18657;SDS011;9458;50.942;5.074;2023-02-15T16:00:34;33.67;;;21.15;;
18657;SDS011;9458;50.942;5.074;2023-02-15T16:03:05;33.38;;;20.92;;
18657;SDS011;9458;50.942;5.074;2023-02-15T16:05:39;36.13;;;22.40;;
18657;SDS011;9458;50.942;5.074;2023-02-15T16:08:07;34.42;;;21.20;;
18657;SDS011;9458;50.942;5.074;2023-02-15T16:10:42;32.78;;;21.45;;
18657;SDS011;9458;50.942;5.074;2023-02-15T16:13:11;36.05;;;21.70;;
18657;SDS011;9458;50.942;5.074;2023-02-15T16:15:42;34.58;;;20.25;;
18657;SDS011;9458;50.942;5.074;2023-02-15T16:18:15;37.50;;;21.52;;
18657;SDS011;9458;50.942;5.074;2023-02-15T16:20:48;34.20;;;21.02;;
18657;SDS011;9458;50.942;5.074;2023-02-15T16:23:23;37.47;;;21.40;;
18657;SDS011;9458;50.942;5.074;2023-02-15T16:26:19;36.33;;;22.35;;
18657;SDS011;9458;50.942;5.074;2023-02-15T16:29:01;34.63;;;21.38;;
18657;SDS011;9458;50.942;5.074;2023-02-15T16:31:40;37.65;;;21.77;;
18657;SDS011;9458;50.942;5.074;2023-02-15T16:34:09;35.22;;;20.73;;
18657;SDS011;9458;50.942;5.074;2023-02-15T16:36:43;35.13;;;21.10;;
18657;SDS011;9458;50.942;5.074;2023-02-15T16:39:17;37.33;;;21.05;;
18657;SDS011;9458;50.942;5.074;2023-02-15T16:41:48;37.88;;;20.35;;
18657;SDS011;9458;50.942;5.074;2023-02-15T16:44:21;32.75;;;20.90;;
18657;SDS011;9458;50.942;5.074;2023-02-15T16:46:49;33.50;;;20.35;;
18657;SDS011;9458;50.942;5.074;2023-02-15T16:49:20;37.45;;;20.30;;
18657;SDS011;9458;50.942;5.074;2023-02-15T16:51:57;33.63;;;20.25;;
18657;SDS011;9458;50.942;5.074;2023-02-15T16:54:27;39.67;;;20.92;;
18657;SDS011;9458;50.942;5.074;2023-02-15T16:56:59;32.88;;;20.50;;
18657;SDS011;9458;50.942;5.074;2023-02-15T16:59:31;38.25;;;19.80;;
18657;SDS011;9458;50.942;5.074;2023-02-15T17:02:03;33.33;;;20.08;;
18657;SDS011;9458;50.942;5.074;2023-02-15T17:04:33;36.28;;;20.75;;
18657;SDS011;9458;50.942;5.074;2023-02-15T17:07:04;35.65;;;20.67;;
18657;SDS011;9458;50.942;5.074;2023-02-15T17:09:33;45.50;;;20.88;;
18657;SDS011;9458;50.942;5.074;2023-02-15T17:12:04;33.83;;;20.48;;
18657;SDS011;9458;50.942;5.074;2023-02-15T17:14:37;34.72;;;20.00;;
18657;SDS011;9458;50.942;5.074;2023-02-15T17:20:59;37.08;;;22.00;;
18657;SDS011;9458;50.942;5.074;2023-02-15T17:23:39;33.25;;;20.65;;
18657;SDS011;9458;50.942;5.074;2023-02-15T17:26:10;34.85;;;21.45;;
18657;SDS011;9458;50.942;5.074;2023-02-15T17:28:45;33.75;;;20.15;;
18657;SDS011;9458;50.942;5.074;2023-02-15T17:31:15;38.45;;;21.13;;
18657;SDS011;9458;50.942;5.074;2023-02-15T17:33:45;36.00;;;21.25;;
18657;SDS011;9458;50.942;5.074;2023-02-15T17:36:16;35.08;;;21.50;;
18657;SDS011;9458;50.942;5.074;2023-02-15T17:38:59;38.42;;;21.77;;
18657;SDS011;9458;50.942;5.074;2023-02-15T17:41:29;38.47;;;22.38;;
18657;SDS011;9458;50.942;5.074;2023-02-15T17:44:06;39.20;;;22.17;;
18657;SDS011;9458;50.942;5.074;2023-02-15T17:46:39;35.63;;;22.25;;
18657;SDS011;9458;50.942;5.074;2023-02-15T20:46:38;46.58;;;26.25;;
18657;SDS011;9458;50.942;5.074;2023-02-15T20:49:07;49.50;;;28.58;;
18657;SDS011;9458;50.942;5.074;2023-02-15T20:51:34;42.65;;;26.40;;
18657;SDS011;9458;50.942;5.074;2023-02-15T20:54:09;45.22;;;26.42;;
18657;SDS011;9458;50.942;5.074;2023-02-15T20:56:39;45.15;;;25.85;;
18657;SDS011;9458;50.942;5.074;2023-02-15T20:59:18;46.97;;;27.00;;
18657;SDS011;9458;50.942;5.074;2023-02-15T21:04:42;44.00;;;26.45;;
18657;SDS011;9458;50.942;5.074;2023-02-15T21:07:09;44.78;;;26.17;;
18657;SDS011;9458;50.942;5.074;2023-02-15T21:09:42;46.30;;;26.67;;
18657;SDS011;9458;50.942;5.074;2023-02-15T21:12:12;45.03;;;25.63;;
18657;SDS011;9458;50.942;5.074;2023-02-15T21:14:41;43.65;;;25.73;;
18657;SDS011;9458;50.942;5.074;2023-02-15T21:17:12;46.85;;;25.85;;
18657;SDS011;9458;50.942;5.074;2023-02-15T21:19:42;42.53;;;23.98;;
18657;SDS011;9458;50.942;5.074;2023-02-15T21:22:12;41.65;;;25.10;;
18657;SDS011;9458;50.942;5.074;2023-02-15T21:24:42;44.58;;;26.13;;
18657;SDS011;9458;50.942;5.074;2023-02-15T21:27:14;43.67;;;25.27;;
18657;SDS011;9458;50.942;5.074;2023-02-15T21:29:42;44.80;;;25.85;;
18657;SDS011;9458;50.942;5.074;2023-02-15T21:32:13;45.67;;;26.65;;
18657;SDS011;9458;50.942;5.074;2023-02-15T21:34:44;45.85;;;25.75;;
18657;SDS011;9458;50.942;5.074;2023-02-15T21:37:18;42.85;;;24.73;;
18657;SDS011;9458;50.942;5.074;2023-02-15T21:39:54;43.33;;;24.55;;
18657;SDS011;9458;50.942;5.074;2023-02-15T21:42:22;45.40;;;24.77;;
18657;SDS011;9458;50.942;5.074;2023-02-15T21:45:12;44.67;;;25.52;;
18657;SDS011;9458;50.942;5.074;2023-02-15T21:48:01;43.33;;;24.77;;
18657;SDS011;9458;50.942;5.074;2023-02-15T21:50:31;45.72;;;24.70;;
18657;SDS011;9458;50.942;5.074;2023-02-15T21:53:22;45.42;;;24.80;;
18657;SDS011;9458;50.942;5.074;2023-02-15T21:55:53;48.28;;;26.58;;
18657;SDS011;9458;50.942;5.074;2023-02-15T21:58:24;43.28;;;24.92;;
18657;SDS011;9458;50.942;5.074;2023-02-15T22:00:53;46.83;;;24.75;;
18657;SDS011;9458;50.942;5.074;2023-02-15T22:03:30;48.03;;;24.58;;
18657;SDS011;9458;50.942;5.074;2023-02-15T22:06:03;41.63;;;23.55;;
18657;SDS011;9458;50.942;5.074;2023-02-15T22:08:36;45.60;;;25.10;;
18657;SDS011;9458;50.942;5.074;2023-02-15T22:11:14;46.60;;;24.85;;
18657;SDS011;9458;50.942;5.074;2023-02-15T22:13:49;43.80;;;24.23;;
